No particular awareness of the weather is required.    There are no Weather-warnings


Meteo18 Weather Cam more information Meteo18 Weather Cam


Thunder radar more information blitzortung!


Rain radar more information rain snow radar


Visit our other weather sites:

Template documentation
and downloads

And another site



Weather Underground History page Text

Daily Summary for November 20, 2017 Units:  English    Metric   Both
« Previous Day
Next Day »
Daily Weekly Monthly Yearly Custom
  High: Low: Average:
Temperature: TemperatureC °F 2.2 °F 5.9 °F
Dew Point: DewpointC °F 1.6 °F 5.1 °F
Humidity: Humidity % 90 % 94 %
Wind Speed: WindSpeedKMH mph 0.0 mph 4.5 mph
Wind Gust: WindSpeedGustKMH mph - -
Wind:- - SSW
Pressure: PressurehPa in 1022.2 in -
Precipitation: 0.0 in    
Historical Graphs
 
 
Tabular Data for November 20, 2017
Time Temperature Dew Point Pressure Wind Wind Speed Wind Gust Humidity Rainfall Rate (Hourly)
TemperatureC °F DewpointC °F PressurehPa in Calm     Humidity % HourlyPrecipMM in
00:02 2.2 °F 1.6 °F 1026.6 in Calm     96 % 0.0 in
00:07 2.2 °F 1.6 °F 1026.6 in Calm     96 % 0.0 in
00:12 2.2 °F 1.8 °F 1026.6 in Calm     97 % 0.0 in
00:17 2.2 °F 1.8 °F 1026.6 in Calm     97 % 0.0 in
00:22 2.2 °F 1.8 °F 1026.6 in Calm     97 % 0.0 in
00:42 2.3 °F 1.9 °F 1026.6 in Calm   1.6 mph 97 % 0.0 in
00:47 2.4 °F 2.0 °F 1026.3 in Calm     97 % 0.0 in
00:52 2.4 °F 2.0 °F 1026.3 in Calm   1.6 mph 97 % 0.0 in
01:02 2.4 °F 2.0 °F 1026.3 in Calm   1.6 mph 97 % 0.0 in
01:07 2.6 °F 2.2 °F 1026.3 in Calm   1.6 mph 97 % 0.0 in
01:12 2.8 °F 2.4 °F 1026.3 in Calm   1.6 mph 97 % 0.0 in
01:17 2.9 °F 2.5 °F 1026.3 in Calm   1.6 mph 97 % 0.0 in
01:22 3.1 °F 2.7 °F 1026.3 in Calm   1.6 mph 97 % 0.0 in
01:32 3.3 °F 2.9 °F 1026.3 in Calm   3.2 mph 97 % 0.0 in
01:37 3.2 °F 2.8 °F 1026.3 in West 1.6 mph 3.2 mph 97 % 0.0 in
01:42 3.2 °F 2.8 °F 1026.3 in Calm   3.2 mph 97 % 0.0 in
01:47 3.2 °F 2.8 °F 1026.3 in Calm   3.2 mph 97 % 0.0 in
02:07 3.7 °F 3.3 °F 1026.3 in WSW 4.8 mph 4.8 mph 97 % 0.0 in
02:17 4.0 °F 3.7 °F 1026.3 in WSW 3.2 mph 9.7 mph 98 % 0.0 in
02:22 4.1 °F 3.8 °F 1026.0 in SW 6.4 mph 11.3 mph 98 % 0.0 in
02:32 4.1 °F 3.7 °F 1026.0 in SW 3.2 mph 11.3 mph 97 % 0.0 in
02:37 4.2 °F 3.8 °F 1026.0 in WSW 3.2 mph 11.3 mph 97 % 0.0 in
02:42 3.4 °F 3.0 °F 1026.0 in WSW 1.6 mph 9.7 mph 97 % 0.0 in
02:52 3.6 °F 3.6 °F 1026.0 in West 4.8 mph 9.7 mph 100 % 0.0 in
02:57 3.6 °F 3.6 °F 1026.3 in West 4.8 mph 8.0 mph 100 % 0.0 in
09:12 3.9 °F 3.5 °F 1026.0 in SSW 3.2 mph -1607.4 mph 97 % 0 in
09:17 3.9 °F 3.5 °F 1026.3 in SW 3.2 mph 12.9 mph 97 % 0.0 in
09:22 4.0 °F 3.6 °F 1026.3 in SW 3.2 mph 12.9 mph 97 % 0.0 in
09:27 4.1 °F 3.7 °F 1026.3 in SW 6.4 mph 8.0 mph 97 % 0.0 in
09:32 3.9 °F 3.3 °F 1026.3 in West 1.6 mph 8.0 mph 96 % 0.0 in
09:37 4.0 °F 3.6 °F 1026.3 in SSW 1.6 mph 12.9 mph 97 % 0.0 in
09:42 4.1 °F 3.7 °F 1026.3 in SW 6.4 mph 12.9 mph 97 % 0.0 in
09:52 4.1 °F 3.7 °F 1026.3 in WSW 6.4 mph 9.7 mph 97 % 0.0 in
09:57 4.1 °F 3.7 °F 1026.0 in SSW 1.6 mph 9.7 mph 97 % 0.0 in
10:02 4.1 °F 3.7 °F 1026.3 in SW 4.8 mph 8.0 mph 97 % 0.0 in
10:12 4.1 °F 3.7 °F 1026.3 in SW 6.4 mph 8.0 mph 97 % 0.0 in
10:17 4.1 °F 3.5 °F 1026.3 in SW 1.6 mph 8.0 mph 96 % 0.0 in
10:22 4.1 °F 3.7 °F 1026.6 in SW 4.8 mph 8.0 mph 97 % 0.0 in
10:32 4.3 °F 3.9 °F 1026.3 in South 1.6 mph 8.0 mph 97 % 0.0 in
10:37 4.3 °F 3.9 °F 1026.3 in South 1.6 mph 6.4 mph 97 % 0.0 in
10:47 4.4 °F 4.0 °F 1026.6 in SSW 8.0 mph 8.0 mph 97 % 0.0 in
10:52 4.3 °F 3.9 °F 1026.3 in SSW 6.4 mph 8.0 mph 97 % 0.0 in
10:57 4.4 °F 4.0 °F 1026.6 in South 8.0 mph 8.0 mph 97 % 0.0 in
11:07 4.3 °F 3.9 °F 1026.6 in SSW 6.4 mph 9.7 mph 97 % 0.0 in
11:12 4.4 °F 4.0 °F 1026.3 in SSW 4.8 mph 9.7 mph 97 % 0.0 in
11:17 4.5 °F 4.1 °F 1026.3 in South 1.6 mph 9.7 mph 97 % 0.0 in
11:37 4.7 °F 4.3 °F 1026.0 in SSE 4.8 mph 11.3 mph 97 % 0.0 in
11:42 4.7 °F 4.3 °F 1026.0 in SE 1.6 mph 11.3 mph 97 % 0.0 in
11:52 4.8 °F 4.4 °F 1026.0 in SSW 3.2 mph 9.7 mph 97 % 0.0 in
11:57 4.9 °F 4.5 °F 1026.0 in SSW 3.2 mph 12.9 mph 97 % 0.0 in
12:12 4.9 °F 4.3 °F 1025.6 in SSE 6.4 mph 12.9 mph 96 % 0.0 in
12:17 5.1 °F 4.7 °F 1025.6 in SSW 4.8 mph 11.3 mph 97 % 0.0 in
12:22 5.2 °F 4.8 °F 1025.6 in SSE 3.2 mph 14.5 mph 97 % 0.0 in
12:32 5.3 °F 4.9 °F 1025.3 in SSE 1.6 mph 12.9 mph 97 % 0.0 in
12:42 5.4 °F 5.0 °F 1025.3 in SSW 1.6 mph 12.9 mph 97 % 0.0 in
12:52 5.6 °F 5.0 °F 1025.3 in SSW 1.6 mph 9.7 mph 96 % 0.0 in
13:02 5.8 °F 5.2 °F 1024.9 in SSW 6.4 mph 9.7 mph 96 % 0.0 in
13:12 6.1 °F 5.5 °F 1024.9 in SW 3.2 mph 12.9 mph 96 % 0.0 in
13:17 6.2 °F 5.6 °F 1024.9 in SSW 4.8 mph 12.9 mph 96 % 0.0 in
13:32 6.5 °F 5.9 °F 1024.9 in SSW 6.4 mph 11.3 mph 96 % 0.0 in
13:37 6.6 °F 5.9 °F 1024.9 in SW 9.7 mph 11.3 mph 95 % 0.0 in
13:42 6.7 °F 6.0 °F 1024.6 in SW 9.7 mph 11.3 mph 95 % 0.0 in
13:47 6.7 °F 6.0 °F 1024.6 in SSW 3.2 mph 11.3 mph 95 % 0.0 in
13:57 7.1 °F 6.2 °F 1024.3 in SSW 4.8 mph 12.9 mph 94 % 0.0 in
14:02 7.2 °F 6.3 °F 1024.3 in SSW 4.8 mph 12.9 mph 94 % 0.0 in
14:12 7.4 °F 6.3 °F 1024.3 in SSW 4.8 mph 14.5 mph 93 % 0.0 in
14:17 7.5 °F 6.4 °F 1024.3 in SSE 3.2 mph 14.5 mph 93 % 0.0 in
14:32 7.8 °F 6.7 °F 1023.9 in SW 19.3 mph 19.3 mph 93 % 0.0 in
14:42 7.9 °F 6.7 °F 1023.9 in SW 8.0 mph 19.3 mph 92 % 0.0 in
14:52 8.1 °F 6.9 °F 1023.6 in South 8.0 mph 16.1 mph 92 % 0.0 in
15:02 8.2 °F 6.7 °F 1023.6 in South 6.4 mph 16.1 mph 90 % 0.0 in
15:07 8.4 °F 7.0 °F 1023.6 in SW 14.5 mph 16.1 mph 91 % 0.0 in
15:12 8.4 °F 7.0 °F 1023.6 in SSW 8.0 mph 16.1 mph 91 % 0.0 in
15:17 8.4 °F 6.9 °F 1023.6 in SW 9.7 mph 16.1 mph 90 % 0.0 in
15:27 8.6 °F 7.1 °F 1023.6 in SW 3.2 mph 16.1 mph 90 % 0.0 in
15:32 8.7 °F 7.2 °F 1023.6 in SW 4.8 mph 14.5 mph 90 % 0.0 in
15:42 8.8 °F 7.2 °F 1023.6 in SSW 11.3 mph 12.9 mph 90 % 0.0 in
15:52 8.8 °F 7.2 °F 1023.6 in South 3.2 mph 12.9 mph 90 % 0.0 in
16:02 8.6 °F 7.2 °F 1023.6 in SSW 1.6 mph 12.9 mph 91 % 0.0 in
16:07 8.6 °F 7.2 °F 1023.6 in SSW 6.4 mph 12.9 mph 91 % 0.0 in
16:12 8.6 °F 7.2 °F 1023.6 in SSW 6.4 mph 14.5 mph 91 % 0.0 in
16:22 8.4 °F 7.0 °F 1023.6 in SSW 6.4 mph 14.5 mph 91 % 0.0 in
16:27 8.4 °F 7.0 °F 1023.6 in South 9.7 mph 11.3 mph 91 % 0.0 in
16:32 8.4 °F 7.0 °F 1023.2 in SW 9.7 mph 14.5 mph 91 % 0.0 in
16:42 8.2 °F 7.0 °F 1023.6 in SSW 4.8 mph 14.5 mph 92 % 0.0 in
16:47 8.2 °F 7.0 °F 1023.6 in SSW 4.8 mph 14.5 mph 92 % 0.0 in
16:52 8.1 °F 6.9 °F 1023.2 in SW 3.2 mph 11.3 mph 92 % 0.0 in
16:57 8.1 °F 6.9 °F 1023.2 in South 3.2 mph 9.7 mph 92 % 0.0 in
17:02 7.9 °F 6.7 °F 1023.2 in SSW 3.2 mph 8.0 mph 92 % 0.0 in
17:07 7.8 °F 6.6 °F 1023.2 in South 3.2 mph 8.0 mph 92 % 0.0 in
17:17 7.7 °F 6.6 °F 1023.2 in SE 1.6 mph 4.8 mph 93 % 0.0 in
17:22 7.6 °F 6.5 °F 1023.2 in SSE 4.8 mph 6.4 mph 93 % 0.0 in
17:27 7.5 °F 6.4 °F 1023.2 in SSW 4.8 mph 8.0 mph 93 % 0.0 in
17:32 7.4 °F 6.3 °F 1022.9 in Calm   8.0 mph 93 % 0.0 in
17:37 7.3 °F 6.2 °F 1022.9 in SSE 3.2 mph 8.0 mph 93 % 0.0 in
17:47 7.2 °F 6.3 °F 1022.9 in SSE 1.6 mph 6.4 mph 94 % 0.0 in
17:52 7.1 °F 6.2 °F 1022.9 in South 1.6 mph 8.0 mph 94 % 0.0 in
17:57 7.0 °F 6.1 °F 1022.9 in Calm   8.0 mph 94 % 0.0 in
18:12 6.8 °F 5.9 °F 1022.9 in South 3.2 mph 4.8 mph 94 % 0.0 in
18:17 6.7 °F 5.8 °F 1022.9 in Calm   4.8 mph 94 % 0.0 in
18:32 6.4 °F 5.7 °F 1022.6 in SSW 3.2 mph 4.8 mph 95 % 0.0 in
18:37 6.4 °F 5.7 °F 1022.9 in SSW 1.6 mph 4.8 mph 95 % 0.0 in
18:42 6.4 °F 5.7 °F 1022.6 in SW 3.2 mph 6.4 mph 95 % 0.0 in
18:47 6.4 °F 5.8 °F 1022.6 in SSW 4.8 mph 6.4 mph 96 % 0.0 in
18:57 6.7 °F 6.1 °F 1022.6 in SSW 6.4 mph 9.7 mph 96 % 0.0 in
19:02 6.8 °F 6.2 °F 1022.9 in SSW 4.8 mph 9.7 mph 96 % 0.0 in
19:17 6.9 °F 6.3 °F 1022.6 in SSW 4.8 mph 9.7 mph 96 % 0.0 in
19:22 6.9 °F 6.2 °F 1022.6 in SSW 4.8 mph 11.3 mph 95 % 0.0 in
19:27 6.9 °F 6.2 °F 1022.6 in SW 4.8 mph 11.3 mph 95 % 0.0 in
19:37 7.0 °F 6.3 °F 1022.6 in SSW 4.8 mph 9.7 mph 95 % 0.0 in
19:42 7.0 °F 6.3 °F 1022.6 in SW 6.4 mph 9.7 mph 95 % 0.0 in
20:02 7.1 °F 6.4 °F 1022.6 in South 4.8 mph 11.3 mph 95 % 0.0 in
20:07 7.1 °F 6.2 °F 1022.6 in SW 6.4 mph 11.3 mph 94 % 0.0 in
20:12 7.1 °F 6.2 °F 1022.6 in SW 4.8 mph 11.3 mph 94 % 0.0 in
20:27 7.0 °F 6.1 °F 1022.6 in SSW 6.4 mph 12.9 mph 94 % 0.0 in
20:32 7.0 °F 6.1 °F 1022.6 in SSW 4.8 mph 12.9 mph 94 % 0.0 in
20:37 6.9 °F 5.8 °F 1022.6 in SW 8.0 mph 12.9 mph 93 % 0.0 in
20:42 6.9 °F 6.0 °F 1022.6 in SW 6.4 mph 12.9 mph 94 % 0.0 in
20:52 6.9 °F 5.8 °F 1022.6 in SW 8.0 mph 11.3 mph 93 % 0.0 in
20:57 6.9 °F 5.8 °F 1022.6 in SW 6.4 mph 11.3 mph 93 % 0.0 in
21:02 6.9 °F 5.8 °F 1022.6 in WSW 4.8 mph 9.7 mph 93 % 0.0 in
21:12 6.9 °F 5.8 °F 1022.6 in SW 9.7 mph 12.9 mph 93 % 0.0 in
21:17 6.9 °F 5.8 °F 1022.6 in WSW 8.0 mph 12.9 mph 93 % 0.0 in
21:27 7.0 °F 5.9 °F 1022.6 in SW 8.0 mph 16.1 mph 93 % 0.0 in
21:32 7.0 °F 5.9 °F 1022.6 in SW 8.0 mph 16.1 mph 93 % 0.0 in
21:42 7.1 °F 6.0 °F 1022.6 in WSW 6.4 mph 11.3 mph 93 % 0.0 in
21:47 7.1 °F 6.0 °F 1022.6 in SW 11.3 mph 11.3 mph 93 % 0.0 in
21:52 7.2 °F 6.1 °F 1022.6 in SW 9.7 mph 14.5 mph 93 % 0.0 in
21:57 7.2 °F 6.1 °F 1022.6 in WSW 4.8 mph 14.5 mph 93 % 0.0 in
22:02 7.2 °F 6.1 °F 1022.6 in WSW 9.7 mph 14.5 mph 93 % 0.0 in
22:17 7.2 °F 6.0 °F 1022.6 in WSW 8.0 mph 16.1 mph 92 % 0.0 in
22:22 7.2 °F 6.0 °F 1022.6 in SW 9.7 mph 16.1 mph 92 % 0.0 in
22:32 7.2 °F 6.1 °F 1022.6 in WSW 6.4 mph 14.5 mph 93 % 0.0 in
22:52 7.0 °F 5.9 °F 1022.6 in SSW 3.2 mph 12.9 mph 93 % 0.0 in
23:02 6.8 °F 5.7 °F 1022.6 in SW 3.2 mph 9.7 mph 93 % 0.0 in
23:17 6.6 °F 5.7 °F 1022.2 in SW 9.7 mph 9.7 mph 94 % 0.0 in
23:22 6.6 °F 5.7 °F 1022.2 in SW 4.8 mph 11.3 mph 94 % 0.0 in
23:27 6.5 °F 5.6 °F 1022.2 in SW 4.8 mph 11.3 mph 94 % 0.0 in
23:32 6.5 °F 5.6 °F 1022.2 in SSW 4.8 mph 11.3 mph 94 % 0.0 in
23:37 6.4 °F 5.5 °F 1022.6 in SSW 1.6 mph 9.7 mph 94 % 0.0 in
23:47 6.4 °F 5.5 °F 1022.2 in SW 4.8 mph 8.0 mph 94 % 0.0 in
23:52 6.3 °F 5.4 °F 1022.6 in SW 4.8 mph 8.0 mph 94 % 0.0 in
23:57 6.3 °F 5.6 °F 1022.6 in SSW 1.6 mph 8.0 mph 95 % 0.0 in
Meteo18
Compliments of Weather Underground - 4 mb

Script developed by  Jim McMurry - jmcmurry@mwt.net Adapted for the template by  Wim van der Kuil - Leuven-Template.eu

You find our weather info also at:

European Weather Network

Weather Underground

Equipment we use:

Weather-station
Davis Vue

Weather-program
Meteobridge

Weather-server
Raspberry PI 2 B+

Provider
1 and 1

Davis Vue

Meteobridge

Raspberry PI 2 B+

1 and 1